createdAt,value
2024-04-30T00:01:06.532Z,2.05
2024-04-30T00:11:11.278Z,1.98
2024-04-30T00:21:18.564Z,1.95
2024-04-30T00:31:23.096Z,1.80
2024-04-30T00:41:30.542Z,1.80
2024-04-30T00:51:35.832Z,1.60
2024-04-30T01:01:43.093Z,1.90
2024-04-30T01:11:48.743Z,2.00
2024-04-30T01:21:56.413Z,1.85
2024-04-30T01:32:04.007Z,2.38
2024-04-30T01:42:09.040Z,2.00
2024-04-30T01:52:16.380Z,2.03
2024-04-30T02:02:21.035Z,2.10
2024-04-30T02:12:28.244Z,2.20
2024-04-30T02:22:32.882Z,2.15
2024-04-30T02:32:56.039Z,2.10
2024-04-30T02:43:00.708Z,2.03
2024-04-30T02:53:08.023Z,2.53
2024-04-30T03:03:12.579Z,2.67
2024-04-30T03:13:20.525Z,2.65
2024-04-30T03:23:25.120Z,2.35
2024-04-30T03:33:32.512Z,2.45
2024-04-30T03:43:41.051Z,2.33
2024-04-30T03:53:48.804Z,2.85
2024-04-30T04:03:53.362Z,3.13
2024-04-30T04:14:16.197Z,3.10
2024-04-30T04:24:20.728Z,3.03
2024-04-30T04:34:28.043Z,3.38
2024-04-30T04:44:32.686Z,3.70
2024-04-30T04:54:40.064Z,3.38
2024-04-30T05:04:44.697Z,3.65
2024-04-30T05:14:55.635Z,3.78
2024-04-30T05:25:00.515Z,3.92
2024-04-30T05:35:10.182Z,3.67
2024-04-30T05:55:21.806Z,4.00
2024-04-30T06:05:26.410Z,4.00
2024-04-30T06:15:33.887Z,3.65
2024-04-30T06:25:38.602Z,4.00
2024-04-30T06:35:45.959Z,3.80
2024-04-30T06:45:51.188Z,4.00
2024-04-30T06:55:58.469Z,4.03
2024-04-30T07:06:03.131Z,3.65
2024-04-30T07:16:10.779Z,3.42
2024-04-30T07:26:18.373Z,3.13
2024-04-30T07:36:26.389Z,3.07
2024-04-30T07:46:30.968Z,2.80
2024-04-30T07:56:38.163Z,2.83
2024-04-30T08:06:42.789Z,2.50
2024-04-30T08:16:50.341Z,2.30
2024-04-30T08:26:54.984Z,2.50
2024-04-30T08:37:02.153Z,2.65
2024-04-30T08:47:07.989Z,2.22
2024-04-30T08:57:15.333Z,2.30
2024-04-30T09:07:19.992Z,2.78
2024-04-30T09:17:28.337Z,2.78
2024-04-30T09:37:40.959Z,2.33
2024-04-30T09:47:46.044Z,2.27
2024-04-30T09:57:53.254Z,2.25
2024-04-30T10:07:58.909Z,2.80
2024-04-30T10:18:07.142Z,2.80
2024-04-30T10:28:16.405Z,2.58
2024-04-30T10:38:24.256Z,2.67
2024-04-30T10:48:29.936Z,3.17
2024-04-30T10:58:37.316Z,2.90
2024-04-30T11:08:41.998Z,3.60
2024-04-30T11:18:49.268Z,2.78
2024-04-30T11:29:08.843Z,2.83
2024-04-30T11:39:21.129Z,3.00
2024-04-30T11:49:25.749Z,2.63
2024-04-30T11:59:33.062Z,2.00
2024-04-30T12:09:37.630Z,1.70
2024-04-30T12:19:45.131Z,1.67
2024-04-30T12:29:50.192Z,2.42
2024-04-30T12:39:57.859Z,1.92
2024-04-30T12:50:02.422Z,2.35
2024-04-30T13:00:11.769Z,1.95
2024-04-30T13:10:17.306Z,2.20
2024-04-30T13:20:24.513Z,2.10
2024-04-30T13:30:29.173Z,2.10
2024-04-30T13:40:37.421Z,2.55
2024-04-30T13:50:41.994Z,2.15
2024-04-30T14:00:49.331Z,2.70
2024-04-30T14:10:54.069Z,2.40
2024-04-30T14:21:01.385Z,2.70
2024-04-30T14:31:06.040Z,2.80
2024-04-30T14:41:14.675Z,2.50
2024-04-30T14:51:19.235Z,2.40
2024-04-30T15:01:26.383Z,2.42
2024-04-30T15:11:31.018Z,3.05
2024-04-30T15:21:38.729Z,3.23
2024-04-30T15:31:43.544Z,2.35
2024-04-30T15:41:50.935Z,2.37
2024-04-30T15:51:55.502Z,2.80
2024-04-30T16:02:02.768Z,2.45
2024-04-30T16:12:07.900Z,2.25
2024-04-30T16:22:15.200Z,2.43
2024-04-30T16:32:19.984Z,2.67
2024-04-30T16:42:27.251Z,2.40
2024-04-30T16:52:31.791Z,2.60
2024-04-30T17:02:40.110Z,2.40
2024-04-30T17:12:44.730Z,2.40
2024-04-30T17:22:51.952Z,2.63
2024-04-30T17:32:56.580Z,2.80
2024-04-30T17:43:03.829Z,3.30
2024-04-30T17:53:08.500Z,3.10
2024-04-30T18:03:15.919Z,3.05
2024-04-30T18:13:20.493Z,2.90
2024-04-30T18:23:27.706Z,4.18
2024-04-30T18:33:32.365Z,3.72
2024-04-30T18:43:41.843Z,3.70
2024-04-30T18:53:46.515Z,4.03
2024-04-30T19:03:53.921Z,4.10
2024-04-30T19:13:58.595Z,4.00
2024-04-30T19:24:05.958Z,4.78
2024-04-30T19:34:11.694Z,5.17
2024-04-30T19:44:19.094Z,6.00
2024-04-30T19:54:23.633Z,7.00
2024-04-30T20:04:31.010Z,8.75
2024-04-30T20:14:35.966Z,7.03
2024-04-30T20:24:43.415Z,6.75
2024-04-30T20:34:48.311Z,5.53
2024-04-30T20:44:56.059Z,6.13
2024-04-30T20:55:00.959Z,6.45
2024-04-30T21:05:09.158Z,6.95
2024-04-30T21:15:14.093Z,7.03
2024-04-30T21:25:23.221Z,6.30
2024-04-30T21:35:28.156Z,8.13
2024-04-30T21:56:03.601Z,8.07
2024-04-30T22:16:51.340Z,8.15
2024-04-30T22:26:58.704Z,8.15
2024-04-30T22:37:04.163Z,7.88
2024-04-30T22:47:14.059Z,8.32
2024-04-30T22:57:18.895Z,8.07
2024-04-30T23:07:26.427Z,7.50
2024-04-30T23:17:31.111Z,7.95
2024-04-30T23:27:38.435Z,9.65
2024-04-30T23:37:43.004Z,9.60
2024-04-30T23:47:51.593Z,9.27
2024-04-30T23:57:56.425Z,10.10
